Impacts METAR Board
IDs:

KMDW - Chicago/Midway Intl, IL, US

Updated at: 0500 UTC 22 Oct 2018
Potential Impact None Slight Moderate High
Time 21/17Z 21/18Z 21/19Z 21/20Z 21/21Z 21/22Z 21/23Z 22/00Z 22/01Z 22/02Z 22/03Z 22/04Z 22/05Z
Temp43 45 47 49 50 50 49 48 47 46 44 43 42
Dewpt21 21 22 22 22 21 21 22 23 24 25 25 25
Altim30.34 30.30 30.24 30.21 30.17 30.14 30.13 30.12 30.11 30.11 30.12 30.12 30.10
VIS10 10 10 10 10 10 10 10 10 10 10 10 10
CIG-- -- -- -- -- -- -- -- -- -- -- -- --
CoverFEWFEWFEWFEWFEWFEWFEWFEWCLRCLRCLRCLRCLR
FltCatVFRVFRVFRVFRVFRVFRVFRVFRVFRVFRVFRVFRVFR
WX--------------------------
WDir240250220220220210220210210230220210200
WSpd11 13 13 11 15 14 9 10 8 8 7 6 6
WGst-- -- 18 -- 21 21 -- -- -- -- -- -- 17
Raw hourly METARs
KMDW 211653Z 24011KT 10SM FEW035 FEW070 06/M06 A3034 RMK AO2 SLP282 T00611061
KMDW 211753Z 25013KT 10SM FEW035 FEW120 07/M06 A3030 RMK AO2 SLP268 T00721061 10072 21022 58023
KMDW 211853Z 22013G18KT 10SM FEW120 08/M06 A3024 RMK AO2 SLP250 T00831056
KMDW 211953Z 22011KT 10SM FEW120 09/M06 A3021 RMK AO2 SLP238 T00941056
KMDW 212053Z 22015G21KT 10SM FEW120 10/M06 A3017 RMK AO2 SLP225 T01001056 56041
KMDW 212153Z 21014G21KT 10SM FEW120 10/M06 A3014 RMK AO2 SLP213 T01001061
KMDW 212253Z 22009KT 10SM FEW120 09/M06 A3013 RMK AO2 SLP210 T00941061
KMDW 212353Z 21010KT 10SM FEW250 09/M06 A3012 RMK AO2 SLP209 T00891056 10100 20072 56017
KMDW 220053Z 21008KT 10SM CLR 08/M05 A3011 RMK AO2 SLP203 T00831050
KMDW 220153Z 23008KT 10SM CLR 08/M04 A3011 RMK AO2 SLP204 T00781044
KMDW 220253Z 22007KT 10SM CLR 07/M04 A3012 RMK AO2 SLP208 T00671039 53001
KMDW 220353Z 21006KT 10SM CLR 06/M04 A3012 RMK AO2 SLP205 T00611039
KMDW 220453Z 20006G17KT 10SM CLR 06/M04 A3010 RMK AO2 SLP198 T00561039



Page loaded:  05:11 UTC  |   10:11 PM Pacific  |   11:11 PM Mountain  |   12:11 AM Central  |   01:11 AM Eastern

 

ADVISORIES

FORECASTS

FORECASTS

OBSERVATIONS

USER TOOLS

ABOUT US